Portada
METAR-TAF:

METAR-TAF

Aeroports :

Xi'an, Xina

latitud: 34-26N, longitud: 108-45E, altitud: 479 m

Observació

L'informe es va fer fa 55 minuts, a les 01:00 UTC
Vent 2 kt amb direcció variable
Temperatura 28°C
Humitat 37%
Pressió 1005 hPa
Visibilitat 10 km o més
sense núvols per sota de 1500 mi sense presència de cumulonimbus.

METAR: ZLXY 240100Z VRB01MPS CAVOK 28/12 Q1005 NOSIG

Hora: 09:55 (01:55 UTC)

Pronòstic

L'informe es va fer fa 6 hores i 41 minuts, a les 19:14 UTC
Pronòstic vàlid del 24 a les 00 UTC al 24 a les 24 UTC
Vent 6 kt del Sud-Oest
Visibilitat: 5000 m
calitja

TAF: ZLXY 231914Z 2400/2424 23003MPS 5000 HZ NSC TX35/2408Z TN19/2422Z

Observacions i pronòstics meteorològics de més de 4000 aeroports (METAR i TAF).

Les estacions disponibles són els punts grocs i vermells al mapa.

Posi el ratolí al punt desitjat per veure el nom de l'estació.

Feu clic per veure les observacions i els pronòstics meteorològics.

Per canviar el mapa: feu clic els botons verds amb una creu de color negre per apropar; al botó verd amb un guió per allunyar la imatge; o en les fletxes verdes per a mapes adjacents.


METAR-TAF: